createdAt,value
2023-11-09T00:01:40.293Z,4.83
2023-11-09T00:04:08.085Z,5.26
2023-11-09T00:06:35.446Z,5.09
2023-11-09T00:09:03.069Z,5.01
2023-11-09T00:11:30.665Z,4.94
2023-11-09T00:13:58.001Z,5.20
2023-11-09T00:16:25.493Z,5.23
2023-11-09T00:18:54.092Z,4.68
2023-11-09T00:21:21.439Z,4.45
2023-11-09T00:23:48.861Z,4.57
2023-11-09T00:26:16.254Z,4.54
2023-11-09T00:28:52.199Z,4.76
2023-11-09T00:31:21.167Z,4.69
2023-11-09T00:33:48.679Z,5.03
2023-11-09T00:36:16.101Z,5.30
2023-11-09T00:38:47.428Z,5.25
2023-11-09T00:41:16.092Z,5.10
2023-11-09T00:43:43.501Z,5.07
2023-11-09T00:46:11.313Z,5.10
2023-11-09T00:48:39.237Z,5.21
2023-11-09T00:51:06.657Z,4.98
2023-11-09T00:53:34.464Z,4.82
2023-11-09T00:56:01.908Z,5.13
2023-11-09T00:58:29.318Z,5.15
2023-11-09T01:00:58.674Z,4.91
2023-11-09T01:03:26.148Z,4.98
2023-11-09T01:05:54.470Z,4.81
2023-11-09T01:08:25.319Z,4.71
2023-11-09T01:10:52.624Z,4.79
2023-11-09T01:13:19.945Z,4.82
2023-11-09T01:15:47.351Z,4.80
2023-11-09T01:18:15.767Z,4.74
2023-11-09T01:20:43.153Z,4.51
2023-11-09T01:23:13.106Z,4.48
2023-11-09T01:25:40.558Z,4.58
2023-11-09T01:28:08.899Z,4.78
2023-11-09T01:30:36.448Z,4.70
2023-11-09T01:33:05.858Z,4.60
2023-11-09T01:35:33.384Z,4.93
2023-11-09T01:38:00.808Z,5.11
2023-11-09T01:40:28.310Z,5.02
2023-11-09T01:42:55.743Z,4.95
2023-11-09T01:45:23.426Z,5.18
2023-11-09T01:47:51.638Z,4.97
2023-11-09T01:50:19.089Z,4.96
2023-11-09T01:52:46.519Z,5.16
2023-11-09T01:55:14.549Z,4.97
2023-11-09T01:57:42.871Z,4.61
2023-11-09T02:00:12.448Z,4.55
2023-11-09T02:02:42.705Z,4.77
2023-11-09T02:05:10.809Z,4.73
2023-11-09T02:07:38.610Z,4.37
2023-11-09T02:10:08.051Z,4.08
2023-11-09T02:12:36.084Z,4.21
2023-11-09T02:15:03.997Z,4.35
2023-11-09T02:17:33.640Z,4.36
2023-11-09T02:20:01.963Z,4.36
2023-11-09T02:22:47.334Z,4.43
2023-11-09T02:25:14.749Z,4.49
2023-11-09T02:27:42.062Z,4.51
2023-11-09T02:30:09.760Z,4.51
2023-11-09T02:32:37.094Z,4.52
2023-11-09T02:35:05.298Z,4.31
2023-11-09T02:37:32.787Z,4.47
2023-11-09T02:40:01.215Z,4.28
2023-11-09T02:42:28.575Z,4.11
2023-11-09T02:44:55.989Z,4.12
2023-11-09T02:47:23.491Z,4.10
2023-11-09T02:49:50.886Z,4.09
2023-11-09T02:52:18.452Z,4.05
2023-11-09T02:54:45.736Z,4.44
2023-11-09T02:57:13.336Z,4.47
2023-11-09T02:59:41.287Z,4.48
2023-11-09T03:02:09.500Z,4.52
2023-11-09T03:04:36.903Z,4.36
2023-11-09T03:07:08.665Z,4.19
2023-11-09T03:09:36.921Z,4.15
2023-11-09T03:12:07.704Z,4.29
2023-11-09T03:14:35.354Z,4.33
2023-11-09T03:17:07.866Z,4.33
2023-11-09T03:19:36.552Z,4.59
2023-11-09T03:22:13.959Z,4.47
2023-11-09T03:24:41.779Z,4.18
2023-11-09T03:27:11.306Z,4.34
2023-11-09T03:29:39.233Z,4.43
2023-11-09T03:32:08.642Z,4.37
2023-11-09T03:34:36.136Z,4.24
2023-11-09T03:37:03.504Z,4.10
2023-11-09T03:39:33.916Z,4.21
2023-11-09T03:42:01.404Z,4.36
2023-11-09T03:44:34.357Z,4.32
2023-11-09T03:47:01.917Z,4.16
2023-11-09T03:49:29.387Z,4.18
2023-11-09T03:51:56.841Z,4.10
2023-11-09T03:54:24.273Z,4.05
2023-11-09T03:56:51.571Z,4.03
2023-11-09T03:59:19.181Z,4.29
2023-11-09T04:01:46.664Z,3.58
2023-11-09T04:04:16.113Z,3.63
2023-11-09T04:06:43.550Z,3.80
2023-11-09T04:09:10.887Z,4.05
2023-11-09T04:11:40.142Z,4.16
2023-11-09T04:14:09.221Z,3.84
2023-11-09T04:16:36.882Z,3.81
2023-11-09T04:19:04.338Z,3.95
2023-11-09T04:21:31.756Z,4.04
2023-11-09T04:23:59.252Z,4.10
2023-11-09T04:26:26.611Z,4.45
2023-11-09T04:28:54.525Z,4.17
2023-11-09T04:31:22.177Z,4.42
2023-11-09T04:33:49.723Z,4.64
2023-11-09T04:36:18.584Z,4.55
2023-11-09T04:38:47.978Z,4.36
2023-11-09T04:41:17.568Z,4.22
2023-11-09T04:43:46.153Z,4.48
2023-11-09T04:46:18.726Z,4.43
2023-11-09T04:48:48.728Z,4.45
2023-11-09T04:51:24.288Z,4.48
2023-11-09T04:53:58.294Z,4.47
2023-11-09T04:56:43.990Z,4.28
2023-11-09T04:59:29.455Z,4.62
2023-11-09T05:02:22.049Z,4.36
2023-11-09T05:05:08.285Z,4.31
2023-11-09T05:07:36.584Z,4.49
2023-11-09T05:10:04.892Z,4.66
2023-11-09T05:12:32.567Z,4.51
2023-11-09T05:15:02.065Z,4.36
2023-11-09T05:17:30.964Z,4.29
2023-11-09T05:19:58.852Z,4.18
2023-11-09T05:22:28.040Z,4.10
2023-11-09T05:24:55.848Z,4.06
2023-11-09T05:27:24.369Z,3.82
2023-11-09T05:29:53.872Z,3.99
2023-11-09T05:32:29.282Z,4.01
2023-11-09T05:34:56.594Z,4.18
2023-11-09T05:37:24.093Z,4.31
2023-11-09T05:39:51.488Z,4.23
2023-11-09T05:42:19.672Z,4.35
2023-11-09T05:44:47.221Z,4.32
2023-11-09T05:47:14.597Z,4.25
2023-11-09T05:49:41.993Z,4.53
2023-11-09T05:52:10.893Z,3.98
2023-11-09T05:54:38.319Z,3.99
2023-11-09T05:57:06.035Z,4.12
2023-11-09T05:59:34.785Z,4.05
2023-11-09T06:02:03.178Z,4.22
2023-11-09T06:04:30.838Z,4.31
2023-11-09T06:06:58.606Z,3.71
2023-11-09T06:09:26.813Z,3.70
2023-11-09T06:11:55.624Z,3.87
2023-11-09T06:14:23.344Z,4.27
2023-11-09T06:16:51.035Z,4.11
2023-11-09T06:19:19.063Z,4.08
2023-11-09T06:21:46.692Z,4.39
2023-11-09T06:24:16.217Z,4.73
2023-11-09T06:26:43.600Z,4.63
2023-11-09T06:29:15.509Z,4.67
2023-11-09T06:31:43.560Z,4.64
2023-11-09T06:34:16.635Z,4.83
2023-11-09T06:36:44.817Z,4.57
2023-11-09T06:39:17.820Z,4.63
2023-11-09T06:41:46.655Z,4.94
2023-11-09T06:44:14.378Z,4.96
2023-11-09T06:46:41.812Z,5.00
2023-11-09T06:49:10.261Z,5.21
2023-11-09T06:51:37.808Z,5.23
2023-11-09T06:54:06.792Z,5.50
2023-11-09T06:56:35.837Z,5.54
2023-11-09T06:59:04.725Z,5.59
2023-11-09T07:01:32.650Z,5.48
2023-11-09T07:04:00.173Z,5.17
2023-11-09T07:06:29.130Z,5.36
2023-11-09T07:08:56.501Z,5.51
2023-11-09T07:11:23.942Z,5.79
2023-11-09T07:13:51.279Z,5.79
2023-11-09T07:16:19.910Z,6.00
2023-11-09T07:18:47.804Z,6.16
2023-11-09T07:21:15.308Z,5.81
2023-11-09T07:23:43.202Z,6.16
2023-11-09T07:26:10.669Z,6.50
2023-11-09T07:28:39.366Z,6.60
2023-11-09T07:31:07.270Z,6.65
2023-11-09T07:33:34.828Z,6.79
2023-11-09T07:36:02.100Z,7.06
2023-11-09T07:38:29.479Z,7.01
2023-11-09T07:40:56.809Z,7.28
2023-11-09T07:43:25.247Z,7.31
2023-11-09T07:45:52.689Z,7.35
2023-11-09T07:48:22.824Z,7.51
2023-11-09T07:50:51.360Z,7.61
2023-11-09T07:53:18.748Z,7.38
2023-11-09T07:55:46.189Z,7.93
2023-11-09T07:58:14.603Z,7.98
2023-11-09T08:00:43.168Z,8.09
2023-11-09T08:03:10.697Z,8.35
2023-11-09T08:05:42.628Z,8.45
2023-11-09T08:08:12.831Z,9.03
2023-11-09T08:10:44.555Z,9.03
2023-11-09T08:13:13.450Z,9.13
2023-11-09T08:15:40.919Z,8.89
2023-11-09T08:18:08.571Z,9.44
2023-11-09T08:20:35.937Z,9.47
2023-11-09T08:23:03.237Z,9.84
2023-11-09T08:25:30.910Z,10.15
2023-11-09T08:27:59.408Z,10.21
2023-11-09T08:30:29.487Z,11.03
2023-11-09T08:32:57.415Z,11.82
2023-11-09T08:35:27.505Z,11.71
2023-11-09T08:37:54.745Z,10.69
2023-11-09T08:40:31.269Z,10.59
2023-11-09T08:42:59.030Z,11.20
2023-11-09T08:45:30.454Z,11.67
2023-11-09T08:47:58.635Z,11.28
2023-11-09T08:50:27.170Z,11.57
2023-11-09T08:52:57.358Z,12.16
2023-11-09T08:55:24.741Z,12.44
2023-11-09T08:57:52.435Z,12.97
2023-11-09T09:00:24.991Z,13.60
2023-11-09T09:02:53.519Z,14.13
2023-11-09T09:05:22.521Z,14.00
2023-11-09T09:07:57.881Z,12.68
2023-11-09T09:10:28.760Z,12.85
2023-11-09T09:13:02.785Z,13.19
2023-11-09T09:15:30.552Z,11.96
2023-11-09T09:18:00.628Z,12.46
2023-11-09T09:20:29.366Z,12.91
2023-11-09T09:22:58.574Z,12.51
2023-11-09T09:25:27.093Z,12.47
2023-11-09T09:27:56.906Z,12.48
2023-11-09T09:30:24.336Z,13.43
2023-11-09T09:32:53.146Z,13.10
2023-11-09T09:35:23.316Z,12.53
2023-11-09T09:37:51.911Z,12.97
2023-11-09T09:40:25.091Z,13.67
2023-11-09T09:42:58.563Z,13.67
2023-11-09T09:45:29.555Z,14.39
2023-11-09T09:48:00.304Z,14.62
2023-11-09T09:50:27.819Z,14.88
2023-11-09T09:52:57.511Z,15.48
2023-11-09T09:55:28.630Z,14.92
2023-11-09T09:57:56.407Z,15.27
2023-11-09T10:00:24.962Z,14.15
2023-11-09T10:02:53.901Z,13.82
2023-11-09T10:05:22.666Z,13.97
2023-11-09T10:08:06.440Z,13.62
2023-11-09T10:10:35.671Z,13.30
2023-11-09T10:13:11.739Z,13.17
2023-11-09T10:15:39.336Z,13.47
2023-11-09T10:18:06.739Z,14.05
2023-11-09T10:20:34.152Z,13.12
2023-11-09T10:23:03.810Z,13.52
2023-11-09T10:25:32.509Z,13.46
2023-11-09T10:28:03.051Z,13.31
2023-11-09T10:30:41.967Z,12.70
2023-11-09T10:33:10.692Z,12.62
2023-11-09T10:35:39.791Z,11.94
2023-11-09T10:38:10.871Z,12.35
2023-11-09T10:40:39.245Z,12.18
2023-11-09T10:43:15.508Z,12.39
2023-11-09T10:45:45.204Z,12.44
2023-11-09T10:48:18.716Z,12.07
2023-11-09T10:50:48.493Z,12.56
2023-11-09T10:53:16.889Z,12.57
2023-11-09T10:55:45.736Z,12.34
2023-11-09T10:58:14.321Z,12.71
2023-11-09T11:00:45.284Z,12.92
2023-11-09T11:03:34.333Z,12.41
2023-11-09T11:06:03.496Z,12.42
2023-11-09T11:08:37.772Z,12.53
2023-11-09T11:11:06.520Z,12.08
2023-11-09T11:13:36.511Z,11.97
2023-11-09T11:16:22.416Z,12.11
2023-11-09T11:18:50.484Z,12.21
2023-11-09T11:21:21.619Z,12.46
2023-11-09T11:23:56.146Z,12.07
2023-11-09T11:26:24.354Z,12.38
2023-11-09T11:28:51.742Z,12.35
2023-11-09T11:31:21.586Z,12.58
2023-11-09T11:33:49.763Z,13.23
2023-11-09T11:36:25.644Z,13.24
2023-11-09T11:39:12.282Z,13.09
2023-11-09T11:41:40.528Z,13.21
2023-11-09T11:44:09.436Z,13.06
2023-11-09T11:46:36.874Z,13.46
2023-11-09T11:49:04.866Z,13.35
2023-11-09T11:51:32.303Z,13.46
2023-11-09T11:54:09.478Z,13.55
2023-11-09T11:56:38.677Z,13.56
2023-11-09T11:59:10.784Z,13.64
2023-11-09T12:01:41.782Z,13.73
2023-11-09T12:04:13.195Z,13.78
2023-11-09T12:06:43.187Z,13.36
2023-11-09T12:09:12.958Z,13.57
2023-11-09T12:11:45.293Z,13.55
2023-11-09T12:14:13.688Z,13.82
2023-11-09T12:16:41.320Z,13.99
2023-11-09T12:19:13.686Z,13.80
2023-11-09T12:21:41.581Z,13.93
2023-11-09T12:24:14.947Z,13.46
2023-11-09T12:26:45.456Z,13.62
2023-11-09T12:29:17.111Z,13.28
2023-11-09T12:31:45.673Z,13.49
2023-11-09T12:34:16.308Z,13.57
2023-11-09T12:36:47.636Z,13.05
2023-11-09T12:39:30.266Z,13.31
2023-11-09T12:41:59.112Z,12.91
2023-11-09T12:44:36.837Z,13.16
2023-11-09T12:47:09.973Z,13.29
2023-11-09T12:49:40.061Z,13.50
2023-11-09T12:52:08.551Z,13.27
2023-11-09T12:54:41.854Z,13.31
2023-11-09T12:57:09.601Z,13.24
2023-11-09T12:59:43.570Z,13.26
2023-11-09T13:02:18.260Z,13.35
2023-11-09T13:04:50.471Z,13.14
2023-11-09T13:07:19.431Z,13.07
2023-11-09T13:09:47.983Z,13.24
2023-11-09T13:12:29.285Z,12.93
2023-11-09T13:15:10.624Z,13.13
2023-11-09T13:17:53.716Z,12.86
2023-11-09T13:23:13.101Z,13.01
2023-11-09T13:25:41.944Z,13.12
2023-11-09T13:28:10.284Z,13.27
2023-11-09T13:30:55.175Z,12.95
2023-11-09T13:33:35.545Z,13.08
2023-11-09T13:36:06.273Z,13.01
2023-11-09T13:39:12.654Z,12.94
2023-11-09T13:41:45.614Z,13.17
2023-11-09T13:44:13.778Z,12.82
2023-11-09T13:46:44.043Z,13.05
2023-11-09T13:49:21.993Z,12.83
2023-11-09T14:00:46.244Z,12.64
2023-11-09T14:11:27.325Z,12.77
2023-11-09T14:14:11.128Z,12.87
2023-11-09T14:16:48.304Z,13.02
2023-11-09T14:23:11.442Z,12.66
2023-11-09T14:25:40.808Z,12.49
2023-11-09T14:28:09.266Z,12.39
2023-11-09T14:30:48.395Z,12.41
2023-11-09T14:38:17.965Z,12.21
2023-11-09T14:40:52.254Z,12.30
2023-11-09T14:43:21.143Z,12.26
2023-11-09T14:46:06.229Z,12.17
2023-11-09T14:48:41.165Z,12.20
2023-11-09T14:51:22.745Z,12.29
2023-11-09T14:53:51.004Z,12.13
2023-11-09T14:56:34.049Z,12.13
2023-11-09T14:59:03.805Z,12.04
2023-11-09T15:01:32.448Z,12.10
2023-11-09T15:03:59.922Z,12.08
2023-11-09T15:06:30.292Z,12.12
2023-11-09T15:09:18.497Z,12.02
2023-11-09T15:11:48.857Z,12.06
2023-11-09T15:14:16.787Z,12.01
2023-11-09T15:16:45.959Z,11.89
2023-11-09T15:19:14.069Z,11.75
2023-11-09T15:21:46.348Z,11.70
2023-11-09T15:24:13.754Z,11.48
2023-11-09T15:26:42.673Z,11.40
2023-11-09T15:29:10.331Z,11.45
2023-11-09T15:31:37.916Z,11.53
2023-11-09T15:34:07.330Z,11.50
2023-11-09T15:36:36.278Z,11.45
2023-11-09T15:39:06.273Z,11.55
2023-11-09T15:41:38.406Z,11.33
2023-11-09T15:44:09.812Z,11.51
2023-11-09T15:46:37.290Z,11.59
2023-11-09T15:49:10.718Z,11.66
2023-11-09T15:51:39.108Z,11.48
2023-11-09T15:54:09.153Z,11.47
2023-11-09T15:56:37.963Z,11.35
2023-11-09T15:59:05.928Z,11.14
2023-11-09T16:01:33.389Z,11.09
2023-11-09T16:04:00.992Z,11.13
2023-11-09T16:06:28.635Z,11.32
2023-11-09T16:08:56.486Z,11.29
2023-11-09T16:11:23.988Z,11.43
2023-11-09T16:13:51.837Z,11.39
2023-11-09T16:16:19.479Z,11.27
2023-11-09T16:18:48.432Z,11.16
2023-11-09T16:21:15.922Z,11.05
2023-11-09T16:23:46.300Z,10.97
2023-11-09T16:26:14.402Z,10.99
2023-11-09T16:28:49.189Z,11.00
2023-11-09T16:31:17.897Z,10.99
2023-11-09T16:33:45.594Z,10.97
2023-11-09T16:36:15.095Z,11.09
2023-11-09T16:38:43.225Z,11.12
2023-11-09T16:41:10.712Z,11.02
2023-11-09T16:43:38.096Z,11.12
2023-11-09T16:46:07.298Z,11.25
2023-11-09T16:48:39.923Z,11.24
2023-11-09T16:51:11.761Z,11.09
2023-11-09T16:53:40.518Z,11.08
2023-11-09T16:56:10.124Z,10.98
2023-11-09T16:58:38.119Z,10.87
2023-11-09T17:01:08.702Z,10.98
2023-11-09T17:03:36.312Z,10.68
2023-11-09T17:06:07.523Z,10.41
2023-11-09T17:08:39.249Z,10.26
2023-11-09T17:11:10.581Z,10.32
2023-11-09T17:13:39.319Z,10.43
2023-11-09T17:16:06.966Z,10.47
2023-11-09T17:18:34.328Z,10.42
2023-11-09T17:21:05.346Z,10.62
2023-11-09T17:23:33.123Z,10.77
2023-11-09T17:26:01.252Z,10.73
2023-11-09T17:28:32.275Z,10.56
2023-11-09T17:30:59.871Z,10.61
2023-11-09T17:33:27.709Z,10.39
2023-11-09T17:35:55.243Z,10.44
2023-11-09T17:38:25.052Z,10.54
2023-11-09T17:40:53.853Z,10.70
2023-11-09T17:43:21.428Z,10.77
2023-11-09T17:45:48.806Z,10.40
2023-11-09T17:48:16.321Z,10.57
2023-11-09T17:50:43.792Z,10.62
2023-11-09T17:53:11.149Z,10.56
2023-11-09T17:55:38.534Z,10.38
2023-11-09T17:58:09.075Z,10.35
2023-11-09T18:00:36.604Z,10.27
2023-11-09T18:03:05.162Z,10.27
2023-11-09T18:05:32.617Z,10.27
2023-11-09T18:08:00.104Z,10.25
2023-11-09T18:10:27.820Z,10.23
2023-11-09T18:12:57.021Z,10.37
2023-11-09T18:15:24.646Z,10.35
2023-11-09T18:17:53.235Z,10.21
2023-11-09T18:20:20.571Z,10.23
2023-11-09T18:22:48.212Z,10.33
2023-11-09T18:25:16.470Z,10.33
2023-11-09T18:27:43.810Z,10.02
2023-11-09T18:30:13.048Z,9.95
2023-11-09T18:32:40.783Z,10.04
2023-11-09T18:35:08.792Z,10.14
2023-11-09T18:37:36.557Z,10.18
2023-11-09T18:40:05.418Z,10.16
2023-11-09T18:42:32.807Z,10.22
2023-11-09T18:45:00.233Z,10.21
2023-11-09T18:47:29.111Z,10.03
2023-11-09T18:52:30.149Z,10.02
2023-11-09T18:54:58.007Z,9.94
2023-11-09T18:57:26.262Z,9.93
2023-11-09T18:59:54.748Z,9.99
2023-11-09T19:02:22.701Z,10.08
2023-11-09T19:04:53.127Z,10.05
2023-11-09T19:07:20.882Z,10.07
2023-11-09T19:09:50.924Z,10.20
2023-11-09T19:12:18.913Z,10.21
2023-11-09T19:14:46.641Z,10.14
2023-11-09T19:17:14.180Z,10.18
2023-11-09T19:19:41.785Z,10.20
2023-11-09T19:24:40.273Z,10.00
2023-11-09T19:27:07.801Z,10.14
2023-11-09T19:29:35.225Z,10.00
2023-11-09T19:32:03.843Z,10.14
2023-11-09T19:34:33.475Z,10.22
2023-11-09T19:37:02.976Z,10.06
2023-11-09T19:39:30.464Z,10.00
2023-11-09T19:41:58.838Z,10.02
2023-11-09T19:44:26.183Z,9.99
2023-11-09T19:46:53.579Z,9.99
2023-11-09T19:49:20.967Z,10.03
2023-11-09T19:51:49.253Z,9.99
2023-11-09T19:54:18.756Z,9.94
2023-11-09T19:56:47.668Z,10.01
2023-11-09T19:59:15.048Z,10.05
2023-11-09T20:01:42.690Z,10.08
2023-11-09T20:04:13.105Z,10.10
2023-11-09T20:06:41.179Z,10.13
2023-11-09T20:09:08.789Z,10.08
2023-11-09T20:11:36.361Z,10.07
2023-11-09T20:14:04.770Z,9.81
2023-11-09T20:16:35.099Z,10.07
2023-11-09T20:19:02.684Z,10.11
2023-11-09T20:21:31.603Z,10.20
2023-11-09T20:23:59.535Z,10.19
2023-11-09T20:26:58.702Z,10.35
2023-11-09T20:29:29.569Z,10.12
2023-11-09T20:32:25.224Z,9.55
2023-11-09T20:34:54.004Z,9.48
2023-11-09T20:37:27.677Z,9.65
2023-11-09T20:39:56.293Z,9.75
2023-11-09T20:42:25.093Z,9.91
2023-11-09T20:44:52.538Z,10.03
2023-11-09T20:47:19.927Z,9.79
2023-11-09T20:49:47.366Z,9.59
2023-11-09T20:52:14.776Z,9.72
2023-11-09T20:54:42.223Z,9.59
2023-11-09T20:57:09.667Z,9.80
2023-11-09T20:59:45.267Z,10.06
2023-11-09T21:05:55.720Z,9.73
2023-11-09T21:08:23.077Z,9.52
2023-11-09T21:10:50.519Z,9.66
2023-11-09T21:13:19.125Z,9.71
2023-11-09T21:15:49.463Z,9.85
2023-11-09T21:18:17.666Z,10.03
2023-11-09T21:20:46.275Z,10.16
2023-11-09T21:23:24.523Z,10.18
2023-11-09T21:26:20.084Z,10.03
2023-11-09T21:28:51.227Z,10.03
2023-11-09T21:31:25.504Z,9.97
2023-11-09T21:34:04.045Z,10.20
2023-11-09T21:36:50.394Z,10.07
2023-11-09T21:39:24.411Z,9.91
2023-11-09T21:41:53.728Z,9.83
2023-11-09T21:44:21.153Z,9.93
2023-11-09T21:46:48.511Z,10.07
2023-11-09T21:49:16.157Z,9.76
2023-11-09T21:51:54.962Z,9.77
2023-11-09T21:54:25.280Z,9.60
2023-11-09T21:56:52.782Z,9.79
2023-11-09T21:59:22.259Z,9.79
2023-11-09T22:01:52.323Z,9.89
2023-11-09T22:04:20.772Z,9.59
2023-11-09T22:06:48.331Z,9.64
2023-11-09T22:09:19.204Z,9.40
2023-11-09T22:11:48.114Z,9.50
2023-11-09T22:14:16.495Z,9.42
2023-11-09T22:16:43.828Z,9.65
2023-11-09T22:19:14.104Z,9.85
2023-11-09T22:21:42.095Z,10.01
2023-11-09T22:24:11.740Z,10.00
2023-11-09T22:26:40.321Z,10.15
2023-11-09T22:29:07.988Z,10.19
2023-11-09T22:31:39.503Z,10.13
2023-11-09T22:34:07.021Z,10.03
2023-11-09T22:36:34.536Z,10.03
2023-11-09T22:39:02.052Z,10.09
2023-11-09T22:41:29.409Z,10.12
2023-11-09T22:43:56.900Z,10.15
2023-11-09T22:46:26.537Z,10.07
2023-11-09T22:49:00.049Z,10.01
2023-11-09T22:51:32.969Z,10.09
2023-11-09T22:57:39.867Z,9.82
2023-11-09T23:00:25.847Z,9.87
2023-11-09T23:02:55.187Z,9.79
2023-11-09T23:05:22.846Z,9.87
2023-11-09T23:07:50.299Z,9.97
2023-11-09T23:10:17.878Z,9.88
2023-11-09T23:12:45.281Z,9.93
2023-11-09T23:15:15.310Z,9.71
2023-11-09T23:17:45.113Z,9.87
2023-11-09T23:20:13.749Z,9.75
2023-11-09T23:22:41.808Z,9.99
2023-11-09T23:25:09.793Z,9.83
2023-11-09T23:27:37.339Z,9.97
2023-11-09T23:30:05.630Z,9.85
2023-11-09T23:32:32.997Z,9.89
2023-11-09T23:35:02.383Z,9.84
2023-11-09T23:37:29.717Z,9.94
2023-11-09T23:40:02.490Z,9.78
2023-11-09T23:42:29.896Z,9.69
2023-11-09T23:44:57.200Z,9.79
2023-11-09T23:47:24.470Z,9.69
2023-11-09T23:49:51.733Z,9.71
2023-11-09T23:52:18.976Z,9.68
2023-11-09T23:54:46.416Z,9.56
2023-11-09T23:57:13.798Z,9.48
2023-11-09T23:59:41.128Z,9.64
